sensor_id;sensor_type;location;lat;lon;timestamp;pressure;altitude;pressure_sealevel;temperature;humidity
76519;BME280;67029;51.054;13.798;2024-01-27T00:00:37;101526.00;;;8.29;55.47
76519;BME280;67029;51.054;13.798;2024-01-27T00:03:07;101534.88;;;8.31;55.47
76519;BME280;67029;51.054;13.798;2024-01-27T00:05:37;101529.06;;;8.25;55.55
76519;BME280;67029;51.054;13.798;2024-01-27T00:08:08;101528.17;;;8.17;55.67
76519;BME280;67029;51.054;13.798;2024-01-27T00:10:38;101530.36;;;8.17;55.68
76519;BME280;67029;51.054;13.798;2024-01-27T00:13:08;101525.67;;;8.30;55.29
76519;BME280;67029;51.054;13.798;2024-01-27T00:15:38;101544.32;;;8.21;55.36
76519;BME280;67029;51.054;13.798;2024-01-27T00:18:08;101543.47;;;8.14;55.56
76519;BME280;67029;51.054;13.798;2024-01-27T00:20:38;101541.95;;;8.14;55.60
76519;BME280;67029;51.054;13.798;2024-01-27T00:23:08;101532.22;;;8.16;55.70
76519;BME280;67029;51.054;13.798;2024-01-27T00:25:38;101540.70;;;8.11;55.75
76519;BME280;67029;51.054;13.798;2024-01-27T00:28:08;101539.75;;;8.08;55.96
76519;BME280;67029;51.054;13.798;2024-01-27T00:30:38;101546.38;;;8.12;55.88
76519;BME280;67029;51.054;13.798;2024-01-27T00:33:08;101552.31;;;8.05;56.09
76519;BME280;67029;51.054;13.798;2024-01-27T00:35:38;101545.99;;;8.04;56.21
76519;BME280;67029;51.054;13.798;2024-01-27T00:38:08;101555.22;;;8.02;56.40
76519;BME280;67029;51.054;13.798;2024-01-27T00:40:38;101556.05;;;8.07;56.40
76519;BME280;67029;51.054;13.798;2024-01-27T00:43:08;101568.42;;;8.06;56.46
76519;BME280;67029;51.054;13.798;2024-01-27T00:45:38;101562.62;;;8.02;56.55
76519;BME280;67029;51.054;13.798;2024-01-27T00:48:08;101566.84;;;7.97;56.66
76519;BME280;67029;51.054;13.798;2024-01-27T00:50:38;101573.94;;;7.94;56.73
76519;BME280;67029;51.054;13.798;2024-01-27T00:53:08;101572.92;;;7.94;56.80
76519;BME280;67029;51.054;13.798;2024-01-27T00:55:38;101574.03;;;7.90;56.85
76519;BME280;67029;51.054;13.798;2024-01-27T00:58:08;101576.20;;;7.83;57.00
76519;BME280;67029;51.054;13.798;2024-01-27T01:00:38;101580.52;;;7.85;56.85
76519;BME280;67029;51.054;13.798;2024-01-27T01:03:08;101587.02;;;7.81;56.84
76519;BME280;67029;51.054;13.798;2024-01-27T01:05:38;101584.78;;;7.83;56.77
76519;BME280;67029;51.054;13.798;2024-01-27T01:08:08;101603.37;;;7.88;56.53
76519;BME280;67029;51.054;13.798;2024-01-27T01:10:38;101599.62;;;7.84;56.41
76519;BME280;67029;51.054;13.798;2024-01-27T01:13:08;101602.89;;;7.94;56.21
76519;BME280;67029;51.054;13.798;2024-01-27T01:15:38;101598.95;;;7.99;56.06
76519;BME280;67029;51.054;13.798;2024-01-27T01:18:08;101613.08;;;7.90;56.29
76519;BME280;67029;51.054;13.798;2024-01-27T01:20:38;101604.73;;;7.93;56.30
76519;BME280;67029;51.054;13.798;2024-01-27T01:23:08;101612.81;;;7.98;56.23
76519;BME280;67029;51.054;13.798;2024-01-27T01:25:38;101609.48;;;7.96;56.24
76519;BME280;67029;51.054;13.798;2024-01-27T01:28:08;101606.52;;;7.89;56.40
76519;BME280;67029;51.054;13.798;2024-01-27T01:30:38;101603.66;;;7.89;56.51
76519;BME280;67029;51.054;13.798;2024-01-27T01:33:10;101609.60;;;7.84;56.41
76519;BME280;67029;51.054;13.798;2024-01-27T01:35:38;101619.14;;;7.66;56.61
76519;BME280;67029;51.054;13.798;2024-01-27T01:38:08;101630.80;;;7.60;56.82
76519;BME280;67029;51.054;13.798;2024-01-27T01:40:38;101629.16;;;7.62;56.83
76519;BME280;67029;51.054;13.798;2024-01-27T01:43:11;101625.58;;;7.64;56.86
76519;BME280;67029;51.054;13.798;2024-01-27T01:45:39;101619.41;;;7.58;56.96
76519;BME280;67029;51.054;13.798;2024-01-27T01:48:09;101618.52;;;7.61;57.01
76519;BME280;67029;51.054;13.798;2024-01-27T01:50:40;101620.66;;;7.58;57.03
76519;BME280;67029;51.054;13.798;2024-01-27T01:53:10;101607.58;;;7.60;57.03
76519;BME280;67029;51.054;13.798;2024-01-27T01:55:40;101626.64;;;7.55;56.98
76519;BME280;67029;51.054;13.798;2024-01-27T01:58:10;101625.50;;;7.51;56.90
76519;BME280;67029;51.054;13.798;2024-01-27T02:00:40;101633.16;;;7.53;56.75
76519;BME280;67029;51.054;13.798;2024-01-27T02:03:13;101629.29;;;7.52;56.54
76519;BME280;67029;51.054;13.798;2024-01-27T02:05:41;101629.80;;;7.56;56.43
76519;BME280;67029;51.054;13.798;2024-01-27T02:08:11;101628.70;;;7.60;56.14
76519;BME280;67029;51.054;13.798;2024-01-27T02:10:41;101624.40;;;7.64;55.96
76519;BME280;67029;51.054;13.798;2024-01-27T02:13:23;101632.86;;;7.58;55.93
76519;BME280;67029;51.054;13.798;2024-01-27T02:15:42;101635.19;;;7.48;56.07
76519;BME280;67029;51.054;13.798;2024-01-27T02:18:12;101638.41;;;7.54;56.10
76519;BME280;67029;51.054;13.798;2024-01-27T02:20:43;101633.80;;;7.54;56.10
76519;BME280;67029;51.054;13.798;2024-01-27T02:23:13;101635.77;;;7.56;56.03
76519;BME280;67029;51.054;13.798;2024-01-27T02:25:43;101636.73;;;7.55;55.93
76519;BME280;67029;51.054;13.798;2024-01-27T02:28:13;101634.93;;;7.53;55.94
76519;BME280;67029;51.054;13.798;2024-01-27T02:30:43;101633.62;;;7.49;55.82
76519;BME280;67029;51.054;13.798;2024-01-27T02:33:13;101628.66;;;7.54;55.82
76519;BME280;67029;51.054;13.798;2024-01-27T02:35:43;101627.39;;;7.59;55.61
76519;BME280;67029;51.054;13.798;2024-01-27T02:38:13;101627.27;;;7.55;55.66
76519;BME280;67029;51.054;13.798;2024-01-27T02:40:43;101634.34;;;7.61;55.47
76519;BME280;67029;51.054;13.798;2024-01-27T02:43:13;101634.50;;;7.61;55.51
76519;BME280;67029;51.054;13.798;2024-01-27T02:45:43;101629.66;;;7.67;55.19
76519;BME280;67029;51.054;13.798;2024-01-27T02:48:13;101645.77;;;7.65;55.14
76519;BME280;67029;51.054;13.798;2024-01-27T02:50:43;101652.67;;;7.65;55.01
76519;BME280;67029;51.054;13.798;2024-01-27T02:53:13;101643.34;;;7.61;55.04
76519;BME280;67029;51.054;13.798;2024-01-27T02:55:44;101640.27;;;7.50;55.18
76519;BME280;67029;51.054;13.798;2024-01-27T02:58:13;101646.91;;;7.58;54.97
76519;BME280;67029;51.054;13.798;2024-01-27T03:00:43;101654.48;;;7.46;55.16
76519;BME280;67029;51.054;13.798;2024-01-27T03:03:14;101663.81;;;7.46;55.16
76519;BME280;67029;51.054;13.798;2024-01-27T03:05:43;101665.79;;;7.43;55.29
76519;BME280;67029;51.054;13.798;2024-01-27T03:08:13;101672.02;;;7.36;55.38
76519;BME280;67029;51.054;13.798;2024-01-27T03:10:44;101677.60;;;7.33;55.46
76519;BME280;67029;51.054;13.798;2024-01-27T03:13:14;101676.84;;;7.37;55.30
76519;BME280;67029;51.054;13.798;2024-01-27T03:15:44;101683.28;;;7.36;55.30
76519;BME280;67029;51.054;13.798;2024-01-27T03:18:14;101684.12;;;7.36;55.28
76519;BME280;67029;51.054;13.798;2024-01-27T03:20:44;101687.98;;;7.36;55.10
76519;BME280;67029;51.054;13.798;2024-01-27T03:23:14;101697.78;;;7.37;55.19
76519;BME280;67029;51.054;13.798;2024-01-27T03:25:44;101697.16;;;7.35;55.10
76519;BME280;67029;51.054;13.798;2024-01-27T03:28:14;101694.42;;;7.33;55.10
76519;BME280;67029;51.054;13.798;2024-01-27T03:30:44;101701.19;;;7.39;54.92
76519;BME280;67029;51.054;13.798;2024-01-27T03:33:14;101703.01;;;7.46;54.82
76519;BME280;67029;51.054;13.798;2024-01-27T03:35:46;101700.15;;;7.46;54.82
76519;BME280;67029;51.054;13.798;2024-01-27T03:38:14;101703.25;;;7.41;54.82
76519;BME280;67029;51.054;13.798;2024-01-27T03:40:44;101708.43;;;7.44;54.78
76519;BME280;67029;51.054;13.798;2024-01-27T03:43:14;101715.80;;;7.55;54.54
76519;BME280;67029;51.054;13.798;2024-01-27T03:45:44;101707.19;;;7.65;53.93
76519;BME280;67029;51.054;13.798;2024-01-27T03:48:14;101713.91;;;7.60;54.18
76519;BME280;67029;51.054;13.798;2024-01-27T03:50:44;101707.73;;;7.59;54.21
76519;BME280;67029;51.054;13.798;2024-01-27T03:53:14;101709.57;;;7.57;53.99
76519;BME280;67029;51.054;13.798;2024-01-27T03:55:44;101700.95;;;7.52;54.18
76519;BME280;67029;51.054;13.798;2024-01-27T03:58:14;101700.78;;;7.44;54.15
76519;BME280;67029;51.054;13.798;2024-01-27T04:00:44;101715.96;;;7.46;54.00
76519;BME280;67029;51.054;13.798;2024-01-27T04:03:14;101710.78;;;7.39;54.02
76519;BME280;67029;51.054;13.798;2024-01-27T04:05:45;101713.98;;;7.36;53.88
76519;BME280;67029;51.054;13.798;2024-01-27T04:08:15;101715.48;;;7.32;53.93
76519;BME280;67029;51.054;13.798;2024-01-27T04:10:45;101707.27;;;7.22;53.94
76519;BME280;67029;51.054;13.798;2024-01-27T04:13:15;101713.38;;;7.27;54.02
76519;BME280;67029;51.054;13.798;2024-01-27T04:15:45;101723.94;;;7.34;53.75
76519;BME280;67029;51.054;13.798;2024-01-27T04:18:15;101724.10;;;7.30;53.80
76519;BME280;67029;51.054;13.798;2024-01-27T04:20:45;101727.43;;;7.40;53.63
76519;BME280;67029;51.054;13.798;2024-01-27T04:23:15;101723.48;;;7.44;53.60
76519;BME280;67029;51.054;13.798;2024-01-27T04:25:45;101722.52;;;7.42;53.28
76519;BME280;67029;51.054;13.798;2024-01-27T04:28:15;101726.38;;;7.42;53.24
76519;BME280;67029;51.054;13.798;2024-01-27T04:30:45;101734.74;;;7.35;53.11
76519;BME280;67029;51.054;13.798;2024-01-27T04:33:15;101730.66;;;7.33;53.46
76519;BME280;67029;51.054;13.798;2024-01-27T04:35:45;101737.18;;;7.35;53.44
76519;BME280;67029;51.054;13.798;2024-01-27T04:38:15;101743.82;;;7.32;53.49
76519;BME280;67029;51.054;13.798;2024-01-27T04:40:45;101747.98;;;7.34;53.58
76519;BME280;67029;51.054;13.798;2024-01-27T04:43:16;101747.61;;;7.32;53.57
76519;BME280;67029;51.054;13.798;2024-01-27T04:45:48;101752.91;;;7.36;53.40
76519;BME280;67029;51.054;13.798;2024-01-27T04:48:17;101757.02;;;7.35;53.35
76519;BME280;67029;51.054;13.798;2024-01-27T04:50:47;101750.72;;;7.35;53.35
76519;BME280;67029;51.054;13.798;2024-01-27T04:53:17;101748.36;;;7.35;53.29
76519;BME280;67029;51.054;13.798;2024-01-27T04:55:47;101747.97;;;7.25;53.44
76519;BME280;67029;51.054;13.798;2024-01-27T04:58:17;101747.05;;;7.14;53.63
76519;BME280;67029;51.054;13.798;2024-01-27T05:00:47;101745.54;;;7.15;53.78
76519;BME280;67029;51.054;13.798;2024-01-27T05:03:17;101740.79;;;7.16;53.79
76519;BME280;67029;51.054;13.798;2024-01-27T05:05:47;101746.89;;;7.18;53.78
76519;BME280;67029;51.054;13.798;2024-01-27T05:08:17;101750.45;;;7.13;53.79
76519;BME280;67029;51.054;13.798;2024-01-27T05:10:47;101758.47;;;7.10;53.87
76519;BME280;67029;51.054;13.798;2024-01-27T05:13:17;101755.27;;;7.06;54.16
76519;BME280;67029;51.054;13.798;2024-01-27T05:15:47;101752.32;;;7.06;54.11
76519;BME280;67029;51.054;13.798;2024-01-27T05:18:17;101766.16;;;6.98;54.35
76519;BME280;67029;51.054;13.798;2024-01-27T05:20:47;101768.01;;;6.98;54.38
76519;BME280;67029;51.054;13.798;2024-01-27T05:23:17;101770.48;;;6.96;54.43
76519;BME280;67029;51.054;13.798;2024-01-27T05:25:47;101774.31;;;6.97;54.53
76519;BME280;67029;51.054;13.798;2024-01-27T05:28:17;101773.03;;;7.01;54.45
76519;BME280;67029;51.054;13.798;2024-01-27T05:30:47;101782.62;;;7.05;54.36
76519;BME280;67029;51.054;13.798;2024-01-27T05:33:17;101781.44;;;7.04;54.51
76519;BME280;67029;51.054;13.798;2024-01-27T05:35:47;101792.59;;;7.10;54.45
76519;BME280;67029;51.054;13.798;2024-01-27T05:38:17;101795.59;;;7.03;54.59
76519;BME280;67029;51.054;13.798;2024-01-27T05:40:47;101791.77;;;7.04;54.65
76519;BME280;67029;51.054;13.798;2024-01-27T05:43:17;101796.05;;;7.11;54.52
76519;BME280;67029;51.054;13.798;2024-01-27T05:45:47;101798.29;;;7.14;54.53
76519;BME280;67029;51.054;13.798;2024-01-27T05:48:17;101806.81;;;7.22;54.41
76519;BME280;67029;51.054;13.798;2024-01-27T05:50:57;101817.50;;;7.29;54.28
76519;BME280;67029;51.054;13.798;2024-01-27T05:53:18;101812.89;;;7.30;54.21
76519;BME280;67029;51.054;13.798;2024-01-27T05:55:48;101821.18;;;7.32;54.25
76519;BME280;67029;51.054;13.798;2024-01-27T05:58:18;101821.05;;;7.34;54.23
76519;BME280;67029;51.054;13.798;2024-01-27T06:00:48;101822.93;;;7.42;54.00
76519;BME280;67029;51.054;13.798;2024-01-27T06:03:18;101824.19;;;7.41;53.96
76519;BME280;67029;51.054;13.798;2024-01-27T06:05:48;101818.59;;;7.40;53.99
76519;BME280;67029;51.054;13.798;2024-01-27T06:08:18;101820.18;;;7.51;53.83
76519;BME280;67029;51.054;13.798;2024-01-27T06:10:48;101823.44;;;7.57;53.61
76519;BME280;67029;51.054;13.798;2024-01-27T06:13:18;101821.66;;;7.52;53.67
76519;BME280;67029;51.054;13.798;2024-01-27T06:15:48;101824.58;;;7.44;53.88
76519;BME280;67029;51.054;13.798;2024-01-27T06:18:18;101828.86;;;7.44;53.97
76519;BME280;67029;51.054;13.798;2024-01-27T06:20:48;101828.55;;;7.51;53.68
76519;BME280;67029;51.054;13.798;2024-01-27T06:23:18;101831.91;;;7.48;53.75
76519;BME280;67029;51.054;13.798;2024-01-27T06:25:50;101832.45;;;7.49;53.91
76519;BME280;67029;51.054;13.798;2024-01-27T06:28:19;101838.11;;;7.55;53.85
76519;BME280;67029;51.054;13.798;2024-01-27T06:30:49;101839.96;;;7.58;53.77
76519;BME280;67029;51.054;13.798;2024-01-27T06:33:19;101843.25;;;7.59;53.62
76519;BME280;67029;51.054;13.798;2024-01-27T06:35:49;101854.70;;;7.63;53.68
76519;BME280;67029;51.054;13.798;2024-01-27T06:38:19;101851.75;;;7.63;53.59
76519;BME280;67029;51.054;13.798;2024-01-27T06:40:49;101845.47;;;7.57;53.71
76519;BME280;67029;51.054;13.798;2024-01-27T06:43:19;101849.35;;;7.46;53.82
76519;BME280;67029;51.054;13.798;2024-01-27T06:45:49;101864.85;;;7.43;54.02
76519;BME280;67029;51.054;13.798;2024-01-27T06:48:19;101864.75;;;7.47;53.97
76519;BME280;67029;51.054;13.798;2024-01-27T06:50:49;101858.52;;;7.46;54.01
76519;BME280;67029;51.054;13.798;2024-01-27T06:53:19;101864.28;;;7.48;54.00
76519;BME280;67029;51.054;13.798;2024-01-27T06:55:49;101866.60;;;7.39;54.15
76519;BME280;67029;51.054;13.798;2024-01-27T06:58:19;101871.94;;;7.37;54.21
76519;BME280;67029;51.054;13.798;2024-01-27T07:00:49;101870.28;;;7.32;54.33
76519;BME280;67029;51.054;13.798;2024-01-27T07:03:20;101881.16;;;7.29;54.46
76519;BME280;67029;51.054;13.798;2024-01-27T07:05:49;101885.71;;;7.33;54.43
76519;BME280;67029;51.054;13.798;2024-01-27T07:08:19;101884.29;;;7.34;54.36
76519;BME280;67029;51.054;13.798;2024-01-27T07:10:49;101884.88;;;7.34;54.35
76519;BME280;67029;51.054;13.798;2024-01-27T07:13:20;101896.20;;;7.36;54.35
76519;BME280;67029;51.054;13.798;2024-01-27T07:15:49;101909.95;;;7.45;54.23
76519;BME280;67029;51.054;13.798;2024-01-27T07:18:20;101923.37;;;7.46;54.19
76519;BME280;67029;51.054;13.798;2024-01-27T07:20:50;101918.41;;;7.50;54.16
76519;BME280;67029;51.054;13.798;2024-01-27T07:23:20;101917.52;;;7.45;54.22
76519;BME280;67029;51.054;13.798;2024-01-27T07:25:50;101922.93;;;7.53;54.16
76519;BME280;67029;51.054;13.798;2024-01-27T07:28:20;101920.00;;;7.56;54.13
76519;BME280;67029;51.054;13.798;2024-01-27T07:30:52;101922.17;;;7.66;53.93
76519;BME280;67029;51.054;13.798;2024-01-27T07:33:20;101924.99;;;7.64;53.90
76519;BME280;67029;51.054;13.798;2024-01-27T07:35:50;101927.34;;;7.61;54.05
76519;BME280;67029;51.054;13.798;2024-01-27T07:38:20;101927.93;;;7.64;54.05
76519;BME280;67029;51.054;13.798;2024-01-27T07:40:50;101928.22;;;7.73;53.90
76519;BME280;67029;51.054;13.798;2024-01-27T07:43:20;101925.19;;;7.73;53.92
76519;BME280;67029;51.054;13.798;2024-01-27T07:45:50;101923.24;;;7.83;53.71
76519;BME280;67029;51.054;13.798;2024-01-27T07:48:20;101914.03;;;7.89;53.70
76519;BME280;67029;51.054;13.798;2024-01-27T07:50:50;101919.57;;;7.96;53.50
76519;BME280;67029;51.054;13.798;2024-01-27T07:53:20;101918.27;;;7.98;53.50
76519;BME280;67029;51.054;13.798;2024-01-27T07:55:50;101927.04;;;8.03;53.48
76519;BME280;67029;51.054;13.798;2024-01-27T07:58:20;101937.90;;;8.05;53.42
76519;BME280;67029;51.054;13.798;2024-01-27T08:00:50;101936.20;;;8.02;53.44
76519;BME280;67029;51.054;13.798;2024-01-27T08:03:20;101937.17;;;7.97;53.57
76519;BME280;67029;51.054;13.798;2024-01-27T08:05:50;101949.34;;;8.01;53.58
76519;BME280;67029;51.054;13.798;2024-01-27T08:08:20;101943.61;;;7.98;53.62
76519;BME280;67029;51.054;13.798;2024-01-27T08:10:50;101950.02;;;8.02;53.63
76519;BME280;67029;51.054;13.798;2024-01-27T08:13:21;101952.35;;;8.12;53.46
76519;BME280;67029;51.054;13.798;2024-01-27T08:15:50;101946.12;;;8.16;53.33
76519;BME280;67029;51.054;13.798;2024-01-27T08:18:20;101946.50;;;8.11;53.52
76519;BME280;67029;51.054;13.798;2024-01-27T08:20:50;101954.11;;;8.07;53.51
76519;BME280;67029;51.054;13.798;2024-01-27T08:23:20;101962.20;;;8.09;53.59
76519;BME280;67029;51.054;13.798;2024-01-27T08:25:50;101961.73;;;8.10;53.58
76519;BME280;67029;51.054;13.798;2024-01-27T08:28:20;101966.33;;;8.12;53.67
76519;BME280;67029;51.054;13.798;2024-01-27T08:30:51;101965.54;;;8.18;53.76
76519;BME280;67029;51.054;13.798;2024-01-27T08:33:21;101970.14;;;8.24;53.73
76519;BME280;67029;51.054;13.798;2024-01-27T08:35:51;101970.83;;;8.30;53.75
76519;BME280;67029;51.054;13.798;2024-01-27T08:38:21;101969.16;;;8.38;53.52
76519;BME280;67029;51.054;13.798;2024-01-27T08:40:51;101981.08;;;8.40;53.54
76519;BME280;67029;51.054;13.798;2024-01-27T08:43:21;101985.28;;;8.42;53.56
76519;BME280;67029;51.054;13.798;2024-01-27T08:45:51;101991.36;;;8.50;53.46
76519;BME280;67029;51.054;13.798;2024-01-27T08:48:21;101988.67;;;8.57;53.33
76519;BME280;67029;51.054;13.798;2024-01-27T08:50:51;101995.80;;;8.64;53.12
76519;BME280;67029;51.054;13.798;2024-01-27T08:53:21;102000.48;;;8.67;52.91
76519;BME280;67029;51.054;13.798;2024-01-27T08:55:51;102011.67;;;8.65;52.97
76519;BME280;67029;51.054;13.798;2024-01-27T08:58:21;102010.20;;;8.60;52.96
76519;BME280;67029;51.054;13.798;2024-01-27T09:00:51;102018.05;;;8.61;53.04
76519;BME280;67029;51.054;13.798;2024-01-27T09:03:21;102021.21;;;8.67;53.06
76519;BME280;67029;51.054;13.798;2024-01-27T09:05:52;102021.00;;;8.73;52.94
76519;BME280;67029;51.054;13.798;2024-01-27T09:08:21;102031.73;;;8.70;53.02
76519;BME280;67029;51.054;13.798;2024-01-27T09:10:52;102024.91;;;8.67;53.02
76519;BME280;67029;51.054;13.798;2024-01-27T09:13:22;102024.84;;;8.71;53.05
76519;BME280;67029;51.054;13.798;2024-01-27T09:15:51;102033.39;;;8.76;52.86
76519;BME280;67029;51.054;13.798;2024-01-27T09:18:21;102034.28;;;8.71;53.04
76519;BME280;67029;51.054;13.798;2024-01-27T09:20:51;102030.56;;;8.75;53.02
76519;BME280;67029;51.054;13.798;2024-01-27T09:23:22;102036.88;;;8.74;52.94
76519;BME280;67029;51.054;13.798;2024-01-27T09:25:52;102039.92;;;8.83;52.80
76519;BME280;67029;51.054;13.798;2024-01-27T09:28:22;102036.85;;;8.85;52.53
76519;BME280;67029;51.054;13.798;2024-01-27T09:30:52;102040.13;;;8.80;52.78
76519;BME280;67029;51.054;13.798;2024-01-27T09:33:22;102038.58;;;8.82;52.83
76519;BME280;67029;51.054;13.798;2024-01-27T09:35:52;102042.46;;;8.84;52.82
76519;BME280;67029;51.054;13.798;2024-01-27T09:38:22;102039.08;;;8.83;52.90
76519;BME280;67029;51.054;13.798;2024-01-27T09:40:52;102036.47;;;8.86;52.78
76519;BME280;67029;51.054;13.798;2024-01-27T09:43:25;102039.22;;;8.94;52.75
76519;BME280;67029;51.054;13.798;2024-01-27T09:45:53;102042.50;;;8.92;52.72
76519;BME280;67029;51.054;13.798;2024-01-27T09:48:23;102040.06;;;8.97;52.74
76519;BME280;67029;51.054;13.798;2024-01-27T09:50:53;102038.07;;;9.03;52.59
76519;BME280;67029;51.054;13.798;2024-01-27T09:53:26;102036.64;;;9.07;52.37
76519;BME280;67029;51.054;13.798;2024-01-27T09:55:53;102031.38;;;9.03;52.09
76519;BME280;67029;51.054;13.798;2024-01-27T09:58:24;102039.38;;;9.06;52.43
76519;BME280;67029;51.054;13.798;2024-01-27T10:00:56;102044.86;;;9.14;52.08
76519;BME280;67029;51.054;13.798;2024-01-27T10:03:25;102038.88;;;9.14;52.09
76519;BME280;67029;51.054;13.798;2024-01-27T10:05:56;102036.64;;;9.17;52.23
76519;BME280;67029;51.054;13.798;2024-01-27T10:08:25;102038.91;;;9.20;52.26
76519;BME280;67029;51.054;13.798;2024-01-27T10:10:56;102035.61;;;9.19;52.41
76519;BME280;67029;51.054;13.798;2024-01-27T10:13:26;102044.13;;;9.25;52.08
76519;BME280;67029;51.054;13.798;2024-01-27T10:16:03;102030.89;;;9.29;52.04
76519;BME280;67029;51.054;13.798;2024-01-27T10:18:26;102037.12;;;9.32;52.01
76519;BME280;67029;51.054;13.798;2024-01-27T10:20:57;102031.55;;;9.36;52.00
76519;BME280;67029;51.054;13.798;2024-01-27T10:23:27;102030.36;;;9.36;51.90
76519;BME280;67029;51.054;13.798;2024-01-27T10:25:57;102026.19;;;9.38;51.82
76519;BME280;67029;51.054;13.798;2024-01-27T10:28:27;102035.59;;;9.41;51.80
76519;BME280;67029;51.054;13.798;2024-01-27T10:31:12;102034.70;;;9.44;51.82
76519;BME280;67029;51.054;13.798;2024-01-27T10:33:27;102033.38;;;9.49;51.89
76519;BME280;67029;51.054;13.798;2024-01-27T10:35:57;102030.12;;;9.52;51.83
76519;BME280;67029;51.054;13.798;2024-01-27T10:38:40;102035.48;;;9.51;51.76
76519;BME280;67029;51.054;13.798;2024-01-27T10:40:59;102033.17;;;9.47;51.94
76519;BME280;67029;51.054;13.798;2024-01-27T10:43:29;102035.64;;;9.53;51.69
76519;BME280;67029;51.054;13.798;2024-01-27T10:45:59;102026.82;;;9.55;51.91
76519;BME280;67029;51.054;13.798;2024-01-27T10:48:30;102039.05;;;9.60;51.67
76519;BME280;67029;51.054;13.798;2024-01-27T10:51:03;102045.30;;;9.56;51.55
76519;BME280;67029;51.054;13.798;2024-01-27T10:53:32;102052.97;;;9.59;51.72
76519;BME280;67029;51.054;13.798;2024-01-27T10:56:03;102054.91;;;9.65;51.69
76519;BME280;67029;51.054;13.798;2024-01-27T10:58:33;102054.37;;;9.57;51.81
76519;BME280;67029;51.054;13.798;2024-01-27T11:01:03;102066.09;;;9.62;51.63
76519;BME280;67029;51.054;13.798;2024-01-27T11:03:33;102060.62;;;9.58;51.62
76519;BME280;67029;51.054;13.798;2024-01-27T11:06:04;102051.34;;;9.68;51.67
76519;BME280;67029;51.054;13.798;2024-01-27T11:08:34;102064.09;;;9.83;51.38
76519;BME280;67029;51.054;13.798;2024-01-27T11:11:07;102054.75;;;9.90;51.50
76519;BME280;67029;51.054;13.798;2024-01-27T11:13:35;102047.84;;;9.94;50.89
76519;BME280;67029;51.054;13.798;2024-01-27T11:16:05;102066.96;;;9.98;50.98
76519;BME280;67029;51.054;13.798;2024-01-27T11:18:35;102055.12;;;10.00;50.84
76519;BME280;67029;51.054;13.798;2024-01-27T11:21:05;102063.23;;;10.12;50.67
76519;BME280;67029;51.054;13.798;2024-01-27T11:23:35;102069.14;;;10.21;50.72
76519;BME280;67029;51.054;13.798;2024-01-27T11:26:05;102065.39;;;10.34;50.47
76519;BME280;67029;51.054;13.798;2024-01-27T11:28:36;102063.74;;;10.48;50.35
76519;BME280;67029;51.054;13.798;2024-01-27T11:31:07;102067.05;;;10.61;50.18
76519;BME280;67029;51.054;13.798;2024-01-27T11:33:43;102064.17;;;10.81;49.51
76519;BME280;67029;51.054;13.798;2024-01-27T11:36:07;102065.58;;;10.90;49.66
76519;BME280;67029;51.054;13.798;2024-01-27T11:38:37;102059.45;;;11.00;49.56
76519;BME280;67029;51.054;13.798;2024-01-27T11:41:07;102061.18;;;11.11;49.35
76519;BME280;67029;51.054;13.798;2024-01-27T11:43:37;102070.04;;;11.25;48.81
76519;BME280;67029;51.054;13.798;2024-01-27T11:46:07;102069.95;;;11.56;49.23
76519;BME280;67029;51.054;13.798;2024-01-27T11:48:41;102071.62;;;11.94;48.93
76519;BME280;67029;51.054;13.798;2024-01-27T11:51:11;102070.88;;;12.53;48.38
76519;BME280;67029;51.054;13.798;2024-01-27T11:53:40;102069.99;;;13.17;46.00
76519;BME280;67029;51.054;13.798;2024-01-27T11:56:10;102065.23;;;13.81;45.45
76519;BME280;67029;51.054;13.798;2024-01-27T11:58:46;102065.87;;;14.52;44.71
76519;BME280;67029;51.054;13.798;2024-01-27T12:01:11;102050.48;;;15.26;43.84
76519;BME280;67029;51.054;13.798;2024-01-27T12:03:41;102054.25;;;15.90;42.45
76519;BME280;67029;51.054;13.798;2024-01-27T12:06:11;102044.30;;;16.67;40.69
76519;BME280;67029;51.054;13.798;2024-01-27T12:08:41;102052.78;;;17.27;38.52
76519;BME280;67029;51.054;13.798;2024-01-27T12:11:11;102051.78;;;17.88;39.29
76519;BME280;67029;51.054;13.798;2024-01-27T12:13:41;102057.72;;;18.41;38.02
76519;BME280;67029;51.054;13.798;2024-01-27T12:16:11;102052.56;;;18.87;36.76
76519;BME280;67029;51.054;13.798;2024-01-27T12:18:41;102049.16;;;19.26;34.88
76519;BME280;67029;51.054;13.798;2024-01-27T12:21:12;102051.12;;;19.67;33.73
76519;BME280;67029;51.054;13.798;2024-01-27T12:23:55;102053.38;;;19.89;34.08
76519;BME280;67029;51.054;13.798;2024-01-27T12:26:14;102062.34;;;20.17;33.24
76519;BME280;67029;51.054;13.798;2024-01-27T12:28:45;102063.19;;;20.31;32.00
76519;BME280;67029;51.054;13.798;2024-01-27T12:31:15;102065.56;;;20.35;31.54
76519;BME280;67029;51.054;13.798;2024-01-27T12:33:54;102069.27;;;20.64;31.00
76519;BME280;67029;51.054;13.798;2024-01-27T12:36:14;102075.55;;;20.80;31.71
76519;BME280;67029;51.054;13.798;2024-01-27T12:38:46;102067.12;;;20.86;31.37
76519;BME280;67029;51.054;13.798;2024-01-27T12:41:14;102070.26;;;20.96;30.52
76519;BME280;67029;51.054;13.798;2024-01-27T12:43:44;102071.17;;;21.03;29.85
76519;BME280;67029;51.054;13.798;2024-01-27T12:46:15;102076.05;;;20.95;29.53
76519;BME280;67029;51.054;13.798;2024-01-27T12:48:46;102067.93;;;20.82;29.84
76519;BME280;67029;51.054;13.798;2024-01-27T12:51:14;102073.85;;;20.93;29.43
76519;BME280;67029;51.054;13.798;2024-01-27T12:53:45;102072.41;;;20.96;30.55
76519;BME280;67029;51.054;13.798;2024-01-27T12:56:15;102069.10;;;21.09;29.37
76519;BME280;67029;51.054;13.798;2024-01-27T12:58:45;102063.47;;;21.02;29.50
76519;BME280;67029;51.054;13.798;2024-01-27T13:01:15;102068.91;;;21.07;28.98